Observation data for Knox City on 10/14/2019      Previous  Date  Next       Current Mesonet Observations  Soil Data  Daily Summary Page  Observations in Plain Language
KKN1 140500Z 20009KT 22/08 A2992 RMK A01 T02190076  RH  041%=      5-min Rain = 0
KKN1 140505Z 20009KT 22/08 A2991 RMK A01 T02180076  RH  041%=      5-min Rain = 0
KKN1 140510Z 20007KT 22/08 A2992 RMK A01 T02170076  RH  041%=      5-min Rain = 0
KKN1 140515Z 21007KT 22/08 A2992 RMK A01 T02150077  RH  042%=      5-min Rain = 0
KKN1 140520Z 21007KT 21/08 A2992 RMK A01 T02130077  RH  043%=      5-min Rain = 0
KKN1 140525Z 21006KT 21/08 A2992 RMK A01 T02130077  RH  042%=      5-min Rain = 0
KKN1 140530Z 21005KT 21/08 A2992 RMK A01 T02110076  RH  043%=      5-min Rain = 0
KKN1 140535Z 21005KT 21/08 A2992 RMK A01 T02110075  RH  043%=      5-min Rain = 0
KKN1 140540Z 20006KT 21/08 A2992 RMK A01 T02100075  RH  043%=      5-min Rain = 0
KKN1 140545Z 20006KT 21/07 A2992 RMK A01 T02090074  RH  043%=      5-min Rain = 0
KKN1 140550Z 20006KT 21/07 A2992 RMK A01 T02070074  RH  043%=      5-min Rain = 0
KKN1 140555Z 21006KT 21/08 A2992 RMK A01 T02060076  RH  044%=      5-min Rain = 0
KKN1 140600Z 21006KT 21/08 A2992 RMK A01 T02050075  RH  044%=      5-min Rain = 0
KKN1 140605Z 20006KT 20/07 A2992 RMK A01 T02030074  RH  044%=      5-min Rain = 0
KKN1 140610Z 21006KT 20/08 A2992 RMK A01 T02020075  RH  045%=      5-min Rain = 0
KKN1 140615Z 21006KT 20/08 A2992 RMK A01 T02040076  RH  045%=      5-min Rain = 0
KKN1 140620Z 22005KT 20/08 A2992 RMK A01 T02000077  RH  046%=      5-min Rain = 0
KKN1 140625Z 22006KT 20/08 A2992 RMK A01 T01960077  RH  047%=      5-min Rain = 0
KKN1 140630Z 22008KT 20/08 A2993 RMK A01 T01980077  RH  047%=      5-min Rain = 0
KKN1 140635Z 21009KT 20/08 A2992 RMK A01 T02010077  RH  046%=      5-min Rain = 0
KKN1 140640Z 21008KT 20/08 A2992 RMK A01 T01990077  RH  046%=      5-min Rain = 0
KKN1 140645Z 20007KT 20/08 A2992 RMK A01 T01960077  RH  047%=      5-min Rain = 0
KKN1 140650Z 21006KT 19/08 A2992 RMK A01 T01930077  RH  048%=      5-min Rain = 0
KKN1 140655Z 22005KT 19/08 A2992 RMK A01 T01900078  RH  050%=      5-min Rain = 0
KKN1 140700Z 20005KT 19/08 A2992 RMK A01 T01880076  RH  049%=      5-min Rain = 0
KKN1 140705Z 20006KT 19/08 A2992 RMK A01 T01870077  RH  050%=      5-min Rain = 0
KKN1 140710Z 20007KT 19/08 A2992 RMK A01 T01860077  RH  050%=      5-min Rain = 0
KKN1 140715Z 20008KT 19/08 A2992 RMK A01 T01870077  RH  050%=      5-min Rain = 0
KKN1 140720Z 20009KT 19/08 A2992 RMK A01 T01900075  RH  049%=      5-min Rain = 0
KKN1 140725Z 19009KT 19/08 A2992 RMK A01 T01920075  RH  048%=      5-min Rain = 0
KKN1 140730Z 20009KT 19/08 A2992 RMK A01 T01920076  RH  048%=      5-min Rain = 0
KKN1 140735Z 20009KT 19/08 A2992 RMK A01 T01900076  RH  049%=      5-min Rain = 0
KKN1 140740Z 20008KT 19/08 A2992 RMK A01 T01880076  RH  049%=      5-min Rain = 0
KKN1 140745Z 20008KT 19/08 A2992 RMK A01 T01860076  RH  050%=      5-min Rain = 0
KKN1 140750Z 20008KT 18/08 A2992 RMK A01 T01840076  RH  051%=      5-min Rain = 0
KKN1 140755Z 20007KT 18/08 A2992 RMK A01 T01800076  RH  052%=      5-min Rain = 0
KKN1 140800Z 19006KT 18/08 A2992 RMK A01 T01780076  RH  053%=      5-min Rain = 0
KKN1 140805Z 19006KT 18/08 A2992 RMK A01 T01770075  RH  053%=      5-min Rain = 0
KKN1 140810Z 18006KT 18/08 A2992 RMK A01 T01750075  RH  053%=      5-min Rain = 0
KKN1 140815Z 19006KT 18/08 A2992 RMK A01 T01750075  RH  053%=      5-min Rain = 0
KKN1 140820Z 19006KT 17/08 A2992 RMK A01 T01740076  RH  054%=      5-min Rain = 0
KKN1 140825Z 19006KT 17/08 A2992 RMK A01 T01740076  RH  054%=      5-min Rain = 0
KKN1 140830Z 19005KT 17/08 A2992 RMK A01 T01740076  RH  054%=      5-min Rain = 0
KKN1 140835Z 20006KT 17/08 A2991 RMK A01 T01730077  RH  055%=      5-min Rain = 0
KKN1 140840Z 20007KT 17/08 A2991 RMK A01 T01720077  RH  055%=      5-min Rain = 0
KKN1 140845Z 19007KT 17/08 A2991 RMK A01 T01720078  RH  055%=      5-min Rain = 0
KKN1 140850Z 19007KT 17/08 A2991 RMK A01 T01700078  RH  056%=      5-min Rain = 0
KKN1 140855Z 19006KT 17/08 A2991 RMK A01 T01680078  RH  057%=      5-min Rain = 0
KKN1 140900Z 19006KT 17/08 A2991 RMK A01 T01660078  RH  058%=      5-min Rain = 0
KKN1 140905Z 20006KT 17/08 A2991 RMK A01 T01650079  RH  059%=      5-min Rain = 0
KKN1 140910Z 20006KT 16/08 A2991 RMK A01 T01640079  RH  059%=      5-min Rain = 0
KKN1 140915Z 19006KT 16/08 A2991 RMK A01 T01630079  RH  059%=      5-min Rain = 0
KKN1 140920Z 18007KT 17/08 A2991 RMK A01 T01650078  RH  058%=      5-min Rain = 0
KKN1 140925Z 18007KT 17/08 A299 RMK A01 T01670078  RH  057%=      5-min Rain = 0
KKN1 140930Z 17007KT 17/08 A299 RMK A01 T01680078  RH  057%=      5-min Rain = 0
KKN1 140935Z 18008KT 17/08 A299 RMK A01 T01710078  RH  056%=      5-min Rain = 0
KKN1 140940Z 18007KT 17/08 A299 RMK A01 T01710078  RH  056%=      5-min Rain = 0
KKN1 140945Z 18006KT 17/08 A299 RMK A01 T01700079  RH  056%=      5-min Rain = 0
KKN1 140950Z 18006KT 17/08 A299 RMK A01 T01700079  RH  057%=      5-min Rain = 0
KKN1 140955Z 18006KT 17/08 A299 RMK A01 T01680079  RH  057%=      5-min Rain = 0
KKN1 141000Z 18005KT 17/08 A299 RMK A01 T01680079  RH  057%=      5-min Rain = 0
KKN1 141005Z 20004KT 17/08 A2991 RMK A01 T01670080  RH  058%=      5-min Rain = 0
KKN1 141010Z 20002KT 17/08 A2991 RMK A01 T01660080  RH  058%=      5-min Rain = 0
KKN1 141015Z 20003KT 17/08 A2991 RMK A01 T01650080  RH  059%=      5-min Rain = 0
KKN1 141020Z 19004KT 17/08 A299 RMK A01 T01650080  RH  059%=      5-min Rain = 0
KKN1 141025Z 18005KT 16/08 A299 RMK A01 T01640079  RH  059%=      5-min Rain = 0
KKN1 141030Z 18006KT 16/08 A299 RMK A01 T01640079  RH  059%=      5-min Rain = 0
KKN1 141035Z 18007KT 17/08 A2991 RMK A01 T01660079  RH  058%=      5-min Rain = 0
KKN1 141040Z 18008KT 17/08 A2991 RMK A01 T01700079  RH  057%=      5-min Rain = 0
KKN1 141045Z 18007KT 17/08 A2991 RMK A01 T01720078  RH  055%=      5-min Rain = 0
KKN1 141050Z 18007KT 17/08 A2991 RMK A01 T01740077  RH  054%=      5-min Rain = 0
KKN1 141055Z 18007KT 17/08 A2992 RMK A01 T01740076  RH  054%=      5-min Rain = 0
KKN1 141100Z 17007KT 17/08 A2992 RMK A01 T01720076  RH  055%=      5-min Rain = 0
KKN1 141105Z 17007KT 17/08 A2992 RMK A01 T01710076  RH  055%=      5-min Rain = 0
KKN1 141110Z 18007KT 17/08 A2991 RMK A01 T01720076  RH  055%=      5-min Rain = 0
KKN1 141115Z 17007KT 17/08 A2991 RMK A01 T01720076  RH  055%=      5-min Rain = 0
KKN1 141120Z 18008KT 17/08 A2991 RMK A01 T01740076  RH  054%=      5-min Rain = 0
KKN1 141125Z 18009KT 18/08 A2992 RMK A01 T01770075  RH  053%=      5-min Rain = 0
KKN1 141130Z 18008KT 18/08 A2991 RMK A01 T01790075  RH  052%=      5-min Rain = 0
KKN1 141135Z 18008KT 18/08 A2992 RMK A01 T01800075  RH  052%=      5-min Rain = 0
KKN1 141140Z 19007KT 18/08 A2992 RMK A01 T01810075  RH  051%=      5-min Rain = 0
KKN1 141145Z 19007KT 18/08 A2992 RMK A01 T01800076  RH  052%=      5-min Rain = 0
KKN1 141150Z 19008KT 18/08 A2992 RMK A01 T01800076  RH  052%=      5-min Rain = 0
KKN1 141155Z 20007KT 18/08 A2992 RMK A01 T01790077  RH  052%=      5-min Rain = 0
KKN1 141200Z 20007KT 18/08 A2992 RMK A01 T01790077  RH  053%=      5-min Rain = 0
KKN1 141205Z 20006KT 18/08 A2993 RMK A01 T01770078  RH  054%=      5-min Rain = 0
KKN1 141210Z 19007KT 18/08 A2993 RMK A01 T01750078  RH  054%=      5-min Rain = 0
KKN1 141215Z 19007KT 18/08 A2993 RMK A01 T01760078  RH  054%=      5-min Rain = 0
KKN1 141220Z 20006KT 18/08 A2993 RMK A01 T01750078  RH  054%=      5-min Rain = 0
KKN1 141225Z 21005KT 18/08 A2993 RMK A01 T01750079  RH  055%=      5-min Rain = 0
KKN1 141230Z 24004KT 18/08 A2994 RMK A01 T01750080  RH  055%=      5-min Rain = 0
KKN1 141235Z 25004KT 18/08 A2994 RMK A01 T01770080  RH  055%=      5-min Rain = 0
KKN1 141240Z 24004KT 18/08 A2994 RMK A01 T01780080  RH  054%=      5-min Rain = 0
KKN1 141245Z 21005KT 18/08 A2994 RMK A01 T01770080  RH  054%=      5-min Rain = 0
KKN1 141250Z 22005KT 18/08 A2994 RMK A01 T01780081  RH  054%=      5-min Rain = 0
KKN1 141255Z 22005KT 18/08 A2994 RMK A01 T01760081  RH  055%=      5-min Rain = 0
KKN1 141300Z 20007KT 18/08 A2994 RMK A01 T01770081  RH  055%=      5-min Rain = 0
KKN1 141305Z 19007KT 18/08 A2994 RMK A01 T01790081  RH  054%=      5-min Rain = 0
KKN1 141310Z 20007KT 18/08 A2994 RMK A01 T01790082  RH  054%=      5-min Rain = 0
KKN1 141315Z 19007KT 18/08 A2994 RMK A01 T01790082  RH  055%=      5-min Rain = 0
KKN1 141320Z 19008KT 18/08 A2994 RMK A01 T01800082  RH  054%=      5-min Rain = 0
KKN1 141325Z 21005KT 18/08 A2994 RMK A01 T01810084  RH  055%=      5-min Rain = 0
KKN1 141330Z 19007KT 18/08 A2994 RMK A01 T01820083  RH  054%=      5-min Rain = 0
KKN1 141335Z 19008KT 18/08 A2994 RMK A01 T01830083  RH  054%=      5-min Rain = 0
KKN1 141340Z 20007KT 19/08 A2994 RMK A01 T01860083  RH  053%=      5-min Rain = 0
KKN1 141345Z 21005KT 19/09 A2995 RMK A01 T01860085  RH  053%=      5-min Rain = 0
KKN1 141350Z 20007KT 19/09 A2995 RMK A01 T01890085  RH  052%=      5-min Rain = 0
KKN1 141355Z 20007KT 19/09 A2995 RMK A01 T01920085  RH  051%=      5-min Rain = 0
KKN1 141400Z 19008KT 19/08 A2995 RMK A01 T01940084  RH  050%=      5-min Rain = 0
KKN1 141405Z 20008KT 20/08 A2995 RMK A01 T01960084  RH  050%=      5-min Rain = 0
KKN1 141410Z 20008KT 20/08 A2996 RMK A01 T01980084  RH  049%=      5-min Rain = 0
KKN1 141415Z 20009KT 20/09 A2996 RMK A01 T02000085  RH  049%=      5-min Rain = 0
KKN1 141420Z 19009KT 20/09 A2996 RMK A01 T02030085  RH  048%=      5-min Rain = 0
KKN1 141425Z 19009KT 21/09 A2996 RMK A01 T02050085  RH  048%=      5-min Rain = 0
KKN1 141430Z 20010KT 21/09 A2995 RMK A01 T02070085  RH  047%=      5-min Rain = 0
KKN1 141435Z 20011KT 21/09 A2996 RMK A01 T02100086  RH  046%=      5-min Rain = 0
KKN1 141440Z 21011KT 21/09 A2997 RMK A01 T02130087  RH  046%=      5-min Rain = 0
KKN1 141445Z 21012KT 22/09 A2997 RMK A01 T02180087  RH  044%=      5-min Rain = 0
KKN1 141450Z 21011KT 22/09 A2997 RMK A01 T02150087  RH  045%=      5-min Rain = 0
KKN1 141455Z 22012KT 22/09 A2997 RMK A01 T02150088  RH  045%=      5-min Rain = 0
KKN1 141500Z 22011KT 21/09 A2997 RMK A01 T02130088  RH  046%=      5-min Rain = 0
KKN1 141505Z 21011KT 22/09 A2997 RMK A01 T02150090  RH  046%=      5-min Rain = 0
KKN1 141510Z 21012KT 22/09 A2998 RMK A01 T02190090  RH  045%=      5-min Rain = 0
KKN1 141515Z 21011KT 22/09 A2997 RMK A01 T02200091  RH  045%=      5-min Rain = 0
KKN1 141520Z 21011KT 22/09 A2997 RMK A01 T02210092  RH  045%=      5-min Rain = 0
KKN1 141525Z 20010KT 22/09 A2997 RMK A01 T02220092  RH  045%=      5-min Rain = 0
KKN1 141530Z 21011KT 22/09 A2997 RMK A01 T02210092  RH  045%=      5-min Rain = 0
KKN1 141535Z 21011KT 23/09 A2997 RMK A01 T02250094  RH  045%=      5-min Rain = 0
KKN1 141540Z 21012KT 23/09 A2997 RMK A01 T02270094  RH  044%=      5-min Rain = 0
KKN1 141545Z 22012KT 23/10 A2997 RMK A01 T02270095  RH  044%=      5-min Rain = 0
KKN1 141550Z 22012KT 23/10 A2997 RMK A01 T02310096  RH  044%=      5-min Rain = 0
KKN1 141555Z 23013KT 23/10 A2997 RMK A01 T02290096  RH  044%=      5-min Rain = 0
KKN1 141600Z 23012KT 23/10 A2997 RMK A01 T02320098  RH  044%=      5-min Rain = 0
KKN1 141605Z 23011G17KT 24/10 A2996 RMK A01 T02420101  RH  042%=      5-min Rain = 0
KKN1 141610Z 23012KT 24/10 A2996 RMK A01 T02390099  RH  043%=      5-min Rain = 0
KKN1 141615Z 23010KT 24/10 A2996 RMK A01 T02430102  RH  042%=      5-min Rain = 0
KKN1 141620Z 23011KT 25/10 A2996 RMK A01 T02470103  RH  042%=      5-min Rain = 0
KKN1 141625Z 23012KT 25/10 A2996 RMK A01 T02470104  RH  042%=      5-min Rain = 0
KKN1 141630Z 22012KT 25/11 A2996 RMK A01 T02500105  RH  041%=      5-min Rain = 0
KKN1 141635Z 21012KT 25/11 A2996 RMK A01 T02500105  RH  042%=      5-min Rain = 0
KKN1 141640Z 22012KT 25/11 A2996 RMK A01 T02500106  RH  042%=      5-min Rain = 0
KKN1 141645Z 22011KT 26/11 A2996 RMK A01 T02560108  RH  041%=      5-min Rain = 0
KKN1 141650Z 21012KT 26/11 A2996 RMK A01 T02550107  RH  041%=      5-min Rain = 0
KKN1 141655Z 21011KT 26/11 A2996 RMK A01 T02620109  RH  040%=      5-min Rain = 0
KKN1 141700Z 23011KT 27/11 A2996 RMK A01 T02680110  RH  038%=      5-min Rain = 0
KKN1 141705Z 22013KT 27/11 A2996 RMK A01 T02650110  RH  039%=      5-min Rain = 0
KKN1 141710Z 20014KT 27/11 A2995 RMK A01 T02660109  RH  039%=      5-min Rain = 0
KKN1 141715Z 20012KT 27/11 A2995 RMK A01 T02660109  RH  039%=      5-min Rain = 0
KKN1 141720Z 20011KT 27/11 A2995 RMK A01 T02690111  RH  039%=      5-min Rain = 0
KKN1 141725Z 21011KT 27/11 A2995 RMK A01 T02700111  RH  038%=      5-min Rain = 0
KKN1 141730Z 21010KT 27/11 A2994 RMK A01 T02730113  RH  038%=      5-min Rain = 0
KKN1 141735Z 21010KT 28/11 A2994 RMK A01 T02790113  RH  037%=      5-min Rain = 0
KKN1 141740Z 22008G15KT 28/11 A2994 RMK A01 T02810114  RH  037%=      5-min Rain = 0
KKN1 141745Z 21008KT 28/11 A2993 RMK A01 T02820114  RH  037%=      5-min Rain = 0
KKN1 141750Z 24009KT 28/11 A2993 RMK A01 T02790113  RH  037%=      5-min Rain = 0
KKN1 141755Z 24009KT 28/11 A2993 RMK A01 T02790113  RH  037%=      5-min Rain = 0
KKN1 141800Z 23009KT 28/11 A2993 RMK A01 T02790113  RH  037%=      5-min Rain = 0
KKN1 141805Z 24009KT 28/11 A2993 RMK A01 T02810113  RH  037%=      5-min Rain = 0
KKN1 141810Z 22009KT 28/11 A2992 RMK A01 T02800113  RH  037%=      5-min Rain = 0
KKN1 141815Z 22009KT 28/11 A2992 RMK A01 T02790114  RH  037%=      5-min Rain = 0
KKN1 141820Z 23007KT 28/11 A2992 RMK A01 T02800114  RH  037%=      5-min Rain = 0
KKN1 141825Z 23007KT 28/11 A2991 RMK A01 T02800114  RH  037%=      5-min Rain = 0
KKN1 141830Z 23008G13KT 28/11 A2991 RMK A01 T02820114  RH  037%=      5-min Rain = 0
KKN1 141835Z 24008KT 28/11 A2991 RMK A01 T02830114  RH  036%=      5-min Rain = 0
KKN1 141840Z 22008KT 28/12 A2991 RMK A01 T02830115  RH  036%=      5-min Rain = 0
KKN1 141845Z 22007KT 29/12 A299 RMK A01 T02870116  RH  036%=      5-min Rain = 0
KKN1 141850Z 21009KT 29/12 A299 RMK A01 T02900118  RH  036%=      5-min Rain = 0
KKN1 141855Z 21009KT 29/12 A299 RMK A01 T02880115  RH  036%=      5-min Rain = 0
KKN1 141900Z 19009KT 29/12 A299 RMK A01 T02910118  RH  036%=      5-min Rain = 0
KKN1 141905Z 19011KT 29/12 A2989 RMK A01 T02940119  RH  035%=      5-min Rain = 0
KKN1 141910Z 19010KT 29/12 A2989 RMK A01 T02920119  RH  036%=      5-min Rain = 0
KKN1 141915Z 18010KT 29/12 A2989 RMK A01 T02910118  RH  036%=      5-min Rain = 0
KKN1 141920Z 19009KT 29/12 A2988 RMK A01 T02890118  RH  036%=      5-min Rain = 0
KKN1 141925Z 20010G15KT 29/12 A2988 RMK A01 T02910119  RH  036%=      5-min Rain = 0
KKN1 141930Z 20010KT 29/12 A2988 RMK A01 T02940120  RH  035%=      5-min Rain = 0
KKN1 141935Z 20011KT 29/12 A2988 RMK A01 T02920120  RH  036%=      5-min Rain = 0
KKN1 141940Z 21010KT 29/12 A2988 RMK A01 T02920120  RH  036%=      5-min Rain = 0
KKN1 141945Z 21009KT 29/12 A2988 RMK A01 T02920120  RH  036%=      5-min Rain = 0
KKN1 141950Z 21010KT 29/12 A2987 RMK A01 T02890120  RH  037%=      5-min Rain = 0
KKN1 141955Z 21011KT 29/12 A2987 RMK A01 T02910121  RH  036%=      5-min Rain = 0
KKN1 142000Z 19013KT 29/12 A2987 RMK A01 T02910120  RH  036%=      5-min Rain = 0
KKN1 142005Z 20013KT 29/12 A2987 RMK A01 T02910120  RH  036%=      5-min Rain = 0
KKN1 142010Z 20014KT 29/12 A2987 RMK A01 T02910119  RH  036%=      5-min Rain = 0
KKN1 142015Z 20014KT 29/12 A2986 RMK A01 T02880118  RH  036%=      5-min Rain = 0
KKN1 142020Z 19013G18KT 29/12 A2986 RMK A01 T02880117  RH  036%=      5-min Rain = 0
KKN1 142025Z 20012KT 29/12 A2986 RMK A01 T02880118  RH  036%=      5-min Rain = 0
KKN1 142030Z 21014KT 29/12 A2986 RMK A01 T02880119  RH  036%=      5-min Rain = 0
KKN1 142035Z 19015G20KT 29/12 A2986 RMK A01 T02890116  RH  036%=      5-min Rain = 0
KKN1 142040Z 20013KT 29/12 A2986 RMK A01 T02910117  RH  035%=      5-min Rain = 0
KKN1 142045Z 21012G17KT 29/12 A2986 RMK A01 T02920119  RH  036%=      5-min Rain = 0
KKN1 142050Z 20012G17KT 30/12 A2986 RMK A01 T02950118  RH  035%=      5-min Rain = 0
KKN1 142055Z 21012G17KT 30/12 A2986 RMK A01 T02960120  RH  035%=      5-min Rain = 0
KKN1 142100Z 21010G15KT 29/12 A2986 RMK A01 T02890119  RH  036%=      5-min Rain = 0
KKN1 142105Z 21010KT 30/12 A2986 RMK A01 T02970123  RH  036%=      5-min Rain = 0
KKN1 142110Z 22010KT 30/12 A2985 RMK A01 T03010123  RH  035%=      5-min Rain = 0
KKN1 142115Z 22011KT 30/12 A2985 RMK A01 T02990122  RH  035%=      5-min Rain = 0
KKN1 142120Z 21010G15KT 30/12 A2985 RMK A01 T02960123  RH  036%=      5-min Rain = 0
KKN1 142125Z 21010KT 30/12 A2985 RMK A01 T03000123  RH  035%=      5-min Rain = 0
KKN1 142130Z 22010KT 30/12 A2985 RMK A01 T02980124  RH  036%=      5-min Rain = 0
KKN1 142135Z 21009KT 30/13 A2985 RMK A01 T02990126  RH  036%=      5-min Rain = 0
KKN1 142140Z 20011KT 30/12 A2985 RMK A01 T02970124  RH  036%=      5-min Rain = 0
KKN1 142145Z 20009KT 30/12 A2984 RMK A01 T02950124  RH  036%=      5-min Rain = 0
KKN1 142150Z 19010KT 30/13 A2985 RMK A01 T02970126  RH  036%=      5-min Rain = 0
KKN1 142155Z 20010KT 30/13 A2984 RMK A01 T03000127  RH  036%=      5-min Rain = 0
KKN1 142200Z 19011KT 30/13 A2984 RMK A01 T03040128  RH  036%=      5-min Rain = 0
KKN1 142205Z 20010KT 30/13 A2984 RMK A01 T03040127  RH  035%=      5-min Rain = 0
KKN1 142210Z 20012KT 31/13 A2984 RMK A01 T03080130  RH  035%=      5-min Rain = 0
KKN1 142215Z 20012KT 30/13 A2984 RMK A01 T03040132  RH  036%=      5-min Rain = 0
KKN1 142220Z 19014KT 30/14 A2984 RMK A01 T03020135  RH  037%=      5-min Rain = 0
KKN1 142225Z 19013KT 30/14 A2984 RMK A01 T02980135  RH  039%=      5-min Rain = 0
KKN1 142230Z 18013KT 29/14 A2984 RMK A01 T02940135  RH  039%=      5-min Rain = 0
KKN1 142235Z 19014KT 29/14 A2984 RMK A01 T02940136  RH  040%=      5-min Rain = 0
KKN1 142240Z 18014KT 29/14 A2984 RMK A01 T02930136  RH  040%=      5-min Rain = 0
KKN1 142245Z 19013KT 29/14 A2984 RMK A01 T02910136  RH  040%=      5-min Rain = 0
KKN1 142250Z 18014KT 29/14 A2984 RMK A01 T02890136  RH  041%=      5-min Rain = 0
KKN1 142255Z 19012KT 29/14 A2984 RMK A01 T02880137  RH  041%=      5-min Rain = 0
KKN1 142300Z 18010KT 29/14 A2984 RMK A01 T02880138  RH  041%=      5-min Rain = 0
KKN1 142305Z 18012KT 29/14 A2984 RMK A01 T02880138  RH  041%=      5-min Rain = 0
KKN1 142310Z 18012KT 29/14 A2984 RMK A01 T02890138  RH  041%=      5-min Rain = 0
KKN1 142315Z 19012KT 29/14 A2984 RMK A01 T02890138  RH  041%=      5-min Rain = 0
KKN1 142320Z 18012KT 29/14 A2984 RMK A01 T02890138  RH  041%=      5-min Rain = 0
KKN1 142325Z 18011KT 29/14 A2985 RMK A01 T02870138  RH  042%=      5-min Rain = 0
KKN1 142330Z 18010KT 29/14 A2985 RMK A01 T02870139  RH  042%=      5-min Rain = 0
KKN1 142335Z 18011KT 29/14 A2984 RMK A01 T02880139  RH  042%=      5-min Rain = 0
KKN1 142340Z 17011G17KT 29/14 A2984 RMK A01 T02870140  RH  042%=      5-min Rain = 0
KKN1 142345Z 16015KT 28/16 A2984 RMK A01 T02750155  RH  050%=      5-min Rain = 0
KKN1 142350Z 16014KT 27/16 A2984 RMK A01 T02680155  RH  052%=      5-min Rain = 0
KKN1 142355Z 16013KT 27/16 A2984 RMK A01 T02660156  RH  053%=      5-min Rain = 0
KKN1 150000Z 16013KT 26/16 A2984 RMK A01 T02640156  RH  054%=      5-min Rain = 0
KKN1 150005Z 16013KT 26/16 A2984 RMK A01 T02610157  RH  055%=      5-min Rain = 0
KKN1 150010Z 16014KT 26/16 A2984 RMK A01 T02580158  RH  056%=      5-min Rain = 0
KKN1 150015Z 16014KT 26/16 A2984 RMK A01 T02560158  RH  057%=      5-min Rain = 0
KKN1 150020Z 16013KT 26/16 A2985 RMK A01 T02550159  RH  058%=      5-min Rain = 0
KKN1 150025Z 16013KT 25/16 A2985 RMK A01 T02530160  RH  059%=      5-min Rain = 0
KKN1 150030Z 16013KT 25/16 A2985 RMK A01 T02520160  RH  059%=      5-min Rain = 0
KKN1 150035Z 16013KT 25/16 A2985 RMK A01 T02500159  RH  060%=      5-min Rain = 0
KKN1 150040Z 16012KT 25/16 A2985 RMK A01 T02490160  RH  060%=      5-min Rain = 0
KKN1 150045Z 16011KT 25/16 A2985 RMK A01 T02460159  RH  061%=      5-min Rain = 0
KKN1 150050Z 16011KT 25/16 A2986 RMK A01 T02460159  RH  061%=      5-min Rain = 0
KKN1 150055Z 17011KT 25/16 A2986 RMK A01 T02450159  RH  061%=      5-min Rain = 0
KKN1 150100Z 17011KT 24/16 A2986 RMK A01 T02430158  RH  062%=      5-min Rain = 0
KKN1 150105Z 17012KT 24/16 A2986 RMK A01 T02440159  RH  062%=      5-min Rain = 0
KKN1 150110Z 17013KT 24/16 A2986 RMK A01 T02440159  RH  062%=      5-min Rain = 0
KKN1 150115Z 17012KT 24/16 A2986 RMK A01 T02430159  RH  062%=      5-min Rain = 0
KKN1 150120Z 17012KT 24/16 A2986 RMK A01 T02410159  RH  063%=      5-min Rain = 0
KKN1 150125Z 17011KT 24/16 A2987 RMK A01 T02400159  RH  064%=      5-min Rain = 0
KKN1 150130Z 17011KT 24/16 A2987 RMK A01 T02380160  RH  064%=      5-min Rain = 0
KKN1 150135Z 17011KT 24/16 A2987 RMK A01 T02370160  RH  065%=      5-min Rain = 0
KKN1 150140Z 17012KT 24/16 A2987 RMK A01 T02360160  RH  066%=      5-min Rain = 0
KKN1 150145Z 17013KT 23/16 A2987 RMK A01 T02340161  RH  066%=      5-min Rain = 0
KKN1 150150Z 17012KT 23/16 A2987 RMK A01 T02320161  RH  067%=      5-min Rain = 0
KKN1 150155Z 17013KT 23/16 A2987 RMK A01 T02310161  RH  068%=      5-min Rain = 0
KKN1 150200Z 17013KT 23/16 A2987 RMK A01 T02300161  RH  068%=      5-min Rain = 0
KKN1 150205Z 17012KT 23/16 A2987 RMK A01 T02280161  RH  069%=      5-min Rain = 0
KKN1 150210Z 17012KT 23/16 A2988 RMK A01 T02270161  RH  069%=      5-min Rain = 0
KKN1 150215Z 17012KT 23/16 A2988 RMK A01 T02270161  RH  070%=      5-min Rain = 0
KKN1 150220Z 17012KT 23/16 A2988 RMK A01 T02260161  RH  070%=      5-min Rain = 0
KKN1 150225Z 17011KT 23/16 A2988 RMK A01 T02260161  RH  070%=      5-min Rain = 0
KKN1 150230Z 17011KT 23/16 A2988 RMK A01 T02250161  RH  071%=      5-min Rain = 0
KKN1 150235Z 17012G17KT 22/16 A2988 RMK A01 T02240161  RH  071%=      5-min Rain = 0
KKN1 150240Z 18014KT 23/16 A2988 RMK A01 T02250162  RH  071%=      5-min Rain = 0
KKN1 150245Z 18013KT 23/16 A2988 RMK A01 T02250162  RH  071%=      5-min Rain = 0
KKN1 150250Z 18013KT 22/16 A2988 RMK A01 T02230161  RH  071%=      5-min Rain = 0
KKN1 150255Z 18013G18KT 22/16 A2989 RMK A01 T02220161  RH  072%=      5-min Rain = 0
KKN1 150300Z 18013KT 22/16 A2989 RMK A01 T02220161  RH  072%=      5-min Rain = 0
KKN1 150305Z 18012KT 22/16 A2989 RMK A01 T02220161  RH  072%=      5-min Rain = 0
KKN1 150310Z 18012KT 22/16 A2989 RMK A01 T02210161  RH  072%=      5-min Rain = 0
KKN1 150315Z 18011KT 22/16 A299 RMK A01 T02200161  RH  072%=      5-min Rain = 0
KKN1 150320Z 18012KT 22/16 A299 RMK A01 T02200161  RH  073%=      5-min Rain = 0
KKN1 150325Z 18010KT 22/16 A299 RMK A01 T02190161  RH  073%=      5-min Rain = 0
KKN1 150330Z 18011KT 22/16 A299 RMK A01 T02190161  RH  073%=      5-min Rain = 0
KKN1 150335Z 18011KT 22/16 A299 RMK A01 T02180162  RH  074%=      5-min Rain = 0
KKN1 150340Z 18011KT 22/16 A299 RMK A01 T02170161  RH  074%=      5-min Rain = 0
KKN1 150345Z 18010KT 22/16 A299 RMK A01 T02150161  RH  075%=      5-min Rain = 0
KKN1 150350Z 18010KT 21/16 A299 RMK A01 T02140161  RH  075%=      5-min Rain = 0
KKN1 150355Z 18011KT 21/16 A299 RMK A01 T02140162  RH  076%=      5-min Rain = 0
KKN1 150400Z 17010KT 21/16 A299 RMK A01 T02130161  RH  076%=      5-min Rain = 0
KKN1 150405Z 17010KT 21/16 A299 RMK A01 T02120161  RH  076%=      5-min Rain = 0
KKN1 150410Z 17010KT 21/16 A299 RMK A01 T02100161  RH  077%=      5-min Rain = 0
KKN1 150415Z 17010KT 21/16 A299 RMK A01 T02100161  RH  077%=      5-min Rain = 0
KKN1 150420Z 17010KT 21/16 A299 RMK A01 T02100161  RH  077%=      5-min Rain = 0
KKN1 150425Z 17010KT 21/16 A299 RMK A01 T02090161  RH  077%=      5-min Rain = 0
KKN1 150430Z 17009KT 21/16 A299 RMK A01 T02090161  RH  078%=      5-min Rain = 0
KKN1 150435Z 17009KT 21/16 A299 RMK A01 T02080161  RH  078%=      5-min Rain = 0
KKN1 150440Z 18010KT 21/16 A299 RMK A01 T02080161  RH  078%=      5-min Rain = 0
KKN1 150445Z 18011KT 21/16 A299 RMK A01 T02080161  RH  078%=      5-min Rain = 0
KKN1 150450Z 18012KT 21/16 A299 RMK A01 T02090161  RH  078%=      5-min Rain = 0
KKN1 150455Z 18011KT 21/16 A299 RMK A01 T02080161  RH  078%=      5-min Rain = 0

Page generated in 0.0169 seconds.